Time;durP1;ratioP1;P1;durP2;ratioP2;P2;SDS_P1;SDS_P2;PMS_P1;PMS_P2;Temp;Humidity;BMP_temperature;BMP_pressure;BME280_temperature;BME280_humidity;BME280_pressure;Samples;Min_cycle;Max_cycle;Signal;HPM_P1;HPM_P2
2022/11/17 00:00:19;;;;;;;2.87;2.77;;;4.70;1.00;;;;;;5056638;28;20894;-75
2022/11/17 00:02:46;;;;;;;3.30;3.10;;;4.70;1.00;;;;;;5056348;28;20485;-70
2022/11/17 00:05:12;;;;;;;3.90;3.60;;;4.60;1.00;;;;;;5054289;28;20425;-75
2022/11/17 00:07:38;;;;;;;3.50;3.17;;;4.60;1.00;;;;;;5055680;28;20512;-71
2022/11/17 00:10:05;;;;;;;3.13;2.80;;;4.50;1.00;;;;;;5055941;28;20488;-75
2022/11/17 00:15:14;;;;;;;3.13;2.93;;;4.60;1.00;;;;;;5055791;28;21036;-70
2022/11/17 00:17:40;;;;;;;8.30;3.40;;;4.60;1.00;;;;;;5056262;28;20501;-71
2022/11/17 00:22:52;;;;;;;3.20;2.97;;;4.60;1.00;;;;;;5056326;28;20226;-76
2022/11/17 00:25:18;;;;;;;3.03;2.83;;;4.70;1.00;;;;;;5054857;28;20406;-76
2022/11/17 00:27:44;;;;;;;2.57;2.37;;;4.70;1.00;;;;;;5055905;28;20205;-75
2022/11/17 00:34:03;;;;;;;3.97;3.57;;;4.70;1.00;;;;;;5055821;28;20644;-74
2022/11/17 00:35:50;;;;;;;3.20;3.00;;;4.80;1.00;;;;;;5055022;28;20477;-75
2022/11/17 00:38:15;;;;;;;3.93;3.63;;;4.80;1.00;;;;;;5055615;28;20406;-75
2022/11/17 00:40:41;;;;;;;4.20;3.37;;;4.80;1.00;;;;;;5055721;28;20392;-70
2022/11/17 00:43:07;;;;;;;3.87;3.53;;;4.80;1.00;;;;;;5055070;28;20637;-75
2022/11/17 00:45:32;;;;;;;4.13;3.83;;;4.80;1.00;;;;;;5053449;28;20258;-70
2022/11/17 00:47:58;;;;;;;3.20;3.00;;;4.80;1.00;;;;;;5055450;28;20626;-75
2022/11/17 00:50:24;;;;;;;3.43;3.13;;;4.70;1.00;;;;;;5055281;28;20235;-70
2022/11/17 00:52:50;;;;;;;4.03;3.70;;;4.60;1.00;;;;;;5055420;28;20570;-70
2022/11/17 00:55:15;;;;;;;4.30;3.90;;;4.60;1.00;;;;;;5053350;28;20168;-70
2022/11/17 00:57:41;;;;;;;3.67;3.27;;;4.70;1.00;;;;;;5055200;28;20218;-70
2022/11/17 01:00:07;;;;;;;4.60;3.50;;;4.70;1.00;;;;;;5054742;28;20243;-74
2022/11/17 01:02:33;;;;;;;3.80;3.50;;;4.70;1.00;;;;;;5055104;28;20172;-70
2022/11/17 01:04:59;;;;;;;3.53;3.33;;;4.70;1.00;;;;;;5054306;28;20463;-70
2022/11/17 01:07:24;;;;;;;5.90;3.30;;;4.70;1.00;;;;;;5054954;28;20660;-70
2022/11/17 01:09:51;;;;;;;5.03;3.30;;;4.70;1.00;;;;;;5055015;28;20171;-71
2022/11/17 01:12:16;;;;;;;4.70;4.40;;;4.70;1.00;;;;;;5054982;28;20632;-76
2022/11/17 01:14:42;;;;;;;4.13;3.90;;;4.60;1.00;;;;;;5054121;28;20415;-70
2022/11/17 01:17:08;;;;;;;6.70;4.27;;;4.70;1.00;;;;;;5054873;28;20198;-75
2022/11/17 01:19:35;;;;;;;3.00;2.70;;;4.60;1.00;;;;;;5054498;28;20168;-71
2022/11/17 01:22:00;;;;;;;3.60;3.30;;;4.70;1.00;;;;;;5055087;28;20517;-75
2022/11/17 01:24:26;;;;;;;3.67;3.30;;;4.70;1.00;;;;;;5053972;28;20459;-73
2022/11/17 01:26:52;;;;;;;4.77;3.70;;;4.70;1.00;;;;;;5054715;28;20187;-70
2022/11/17 01:29:18;;;;;;;4.80;3.90;;;4.70;1.00;;;;;;5054674;28;20171;-75
2022/11/17 01:31:48;;;;;;;4.07;3.77;;;4.80;1.00;;;;;;5054589;28;20656;-70
2022/11/17 01:34:13;;;;;;;3.43;3.17;;;4.70;1.00;;;;;;5052649;28;20211;-70
2022/11/17 01:39:27;;;;;;;3.73;3.03;;;4.70;1.00;;;;;;5053889;28;20182;-72
2022/11/17 01:41:53;;;;;;;4.37;3.97;;;4.70;1.00;;;;;;5054279;28;20428;-70
2022/11/17 01:44:51;;;;;;;4.13;3.73;;;4.60;1.00;;;;;;5053580;28;20545;-75
2022/11/17 01:47:38;;;;;;;3.83;3.43;;;4.60;1.00;;;;;;5054169;28;20770;-76
2022/11/17 01:50:04;;;;;;;8.33;3.83;;;4.60;1.00;;;;;;5054018;28;20447;-70
2022/11/17 01:52:31;;;;;;;5.03;4.60;;;4.60;1.00;;;;;;5054005;28;20391;-71
2022/11/17 01:54:59;;;;;;;5.10;4.60;;;4.60;1.00;;;;;;5052051;28;20201;-74
2022/11/17 01:57:38;;;;;;;5.27;4.77;;;4.60;1.00;;;;;;5053763;28;20453;-76
2022/11/17 02:00:09;;;;;;;7.03;4.30;;;4.50;1.00;;;;;;5053696;28;20413;-70
2022/11/17 02:02:37;;;;;;;4.57;4.17;;;4.50;1.00;;;;;;5053288;28;20955;-76
2022/11/17 02:05:09;;;;;;;5.33;4.93;;;4.60;1.00;;;;;;5053045;28;20822;-70
2022/11/17 02:07:38;;;;;;;7.97;6.10;;;4.60;1.00;;;;;;5054022;28;20421;-70
2022/11/17 02:10:05;;;;;;;5.60;5.00;;;4.60;1.00;;;;;;5053944;28;20448;-76
2022/11/17 02:12:32;;;;;;;4.60;4.20;;;4.60;1.00;;;;;;5053768;28;20890;-75
2022/11/17 02:15:00;;;;;;;6.10;5.50;;;4.60;1.00;;;;;;5052840;28;20411;-75
2022/11/17 02:17:33;;;;;;;6.60;5.90;;;4.60;1.00;;;;;;5053540;28;20418;-76
2022/11/17 02:20:26;;;;;;;5.77;5.17;;;4.60;1.00;;;;;;5053445;28;20409;-76
2022/11/17 02:23:25;;;;;;;7.30;6.23;;;4.60;1.00;;;;;;5053480;28;20468;-75
2022/11/17 02:26:39;;;;;;;6.40;5.60;;;4.70;1.00;;;;;;5053086;28;20924;-70
2022/11/17 02:29:14;;;;;;;9.30;7.37;;;4.60;1.00;;;;;;5016613;28;20493;-75
2022/11/17 02:31:52;;;;;;;11.30;6.47;;;4.60;1.00;;;;;;5053476;28;20400;-70
2022/11/17 02:34:26;;;;;;;9.27;6.50;;;4.60;1.00;;;;;;5052854;28;20401;-70
2022/11/17 02:37:02;;;;;;;9.03;6.77;;;4.50;1.00;;;;;;5053318;28;20886;-76
2022/11/17 02:39:37;;;;;;;7.80;7.00;;;4.40;1.00;;;;;;5051528;28;20417;-75
2022/11/17 02:44:02;;;;;;;11.07;6.53;;;4.40;1.00;;;;;;5053391;28;20411;-75
2022/11/17 02:45:13;;;;;;;8.43;7.30;;;4.30;1.00;;;;;;5052259;28;21123;-75
2022/11/17 02:47:42;;;;;;;12.47;7.27;;;4.20;1.00;;;;;;5053177;28;21001;-70
2022/11/17 02:50:10;;;;;;;8.60;7.67;;;4.10;1.00;;;;;;5053238;28;20420;-71
2022/11/17 02:52:36;;;;;;;10.67;6.83;;;4.10;1.00;;;;;;5051861;28;20410;-71
2022/11/17 02:55:05;;;;;;;10.07;7.00;;;4.00;1.00;;;;;;5052428;28;20463;-70
2022/11/17 02:57:39;;;;;;;13.20;8.73;;;4.00;1.00;;;;;;5052547;28;20430;-75
2022/11/17 03:00:15;;;;;;;13.63;8.07;;;4.00;1.00;;;;;;5053048;28;20459;-75
2022/11/17 03:02:51;;;;;;;9.83;7.53;;;4.00;1.00;;;;;;5053009;28;20409;-70
2022/11/17 03:06:01;;;;;;;9.00;6.37;;;4.00;1.00;;;;;;5052194;28;20414;-75
2022/11/17 03:08:44;;;;;;;11.70;8.57;;;4.00;1.00;;;;;;5053117;28;20413;-70
2022/11/17 03:11:12;;;;;;;12.33;9.00;;;4.10;1.00;;;;;;5052887;28;20398;-69
2022/11/17 03:13:52;;;;;;;9.23;8.23;;;4.00;1.00;;;;;;5052692;28;20770;-70
2022/11/17 03:16:49;;;;;;;13.50;9.00;;;4.00;1.00;;;;;;5056934;28;20420;-71
2022/11/17 03:19:43;;;;;;;11.37;7.67;;;3.80;1.00;;;;;;5055949;28;20409;-70
2022/11/17 03:22:15;;;;;;;13.43;8.00;;;3.90;1.00;;;;;;5057132;28;20412;-75
2022/11/17 03:24:52;;;;;;;12.00;8.47;;;3.80;1.00;;;;;;5056292;28;20453;-73
2022/11/17 03:27:24;;;;;;;12.33;7.73;;;3.80;1.00;;;;;;5056782;28;20417;-71
2022/11/17 03:29:53;;;;;;;9.43;8.03;;;3.80;1.00;;;;;;5056897;28;20505;-74
2022/11/17 03:32:22;;;;;;;10.13;7.97;;;3.80;1.00;;;;;;5056542;28;20409;-70
2022/11/17 03:35:02;;;;;;;13.77;9.13;;;3.80;1.00;;;;;;5056085;28;20437;-70
2022/11/17 03:37:32;;;;;;;13.97;8.30;;;3.70;1.00;;;;;;5056603;28;20425;-70
2022/11/17 03:40:03;;;;;;;14.40;8.87;;;3.80;1.00;;;;;;5055377;28;20466;-70
2022/11/17 03:42:33;;;;;;;12.77;9.40;;;3.80;1.00;;;;;;5056562;28;20408;-70
2022/11/17 03:45:08;;;;;;;12.20;8.27;;;3.80;1.00;;;;;;5055780;28;20514;-75
2022/11/17 03:47:35;;;;;;;11.37;8.93;;;3.90;1.00;;;;;;5056349;28;20416;-71
2022/11/17 03:50:15;;;;;;;13.67;8.60;;;3.90;1.00;;;;;;5056445;28;20434;-75
2022/11/17 03:52:42;;;;;;;14.57;10.17;;;3.90;1.00;;;;;;5055866;28;20394;-70
2022/11/17 03:55:09;;;;;;;15.70;9.83;;;3.90;1.00;;;;;;5055789;28;20747;-70
2022/11/17 03:57:46;;;;;;;13.37;9.17;;;3.90;1.00;;;;;;5056176;28;20778;-75
2022/11/17 04:00:17;;;;;;;12.10;8.37;;;3.90;1.00;;;;;;5055100;28;20555;-70
2022/11/17 04:02:46;;;;;;;17.57;9.30;;;3.90;1.00;;;;;;5056229;28;20930;-70
2022/11/17 04:05:14;;;;;;;11.60;8.83;;;3.90;1.00;;;;;;5055404;28;20518;-75
2022/11/17 04:07:42;;;;;;;13.73;9.80;;;4.00;1.00;;;;;;5055980;28;20429;-69
2022/11/17 04:10:14;;;;;;;13.90;10.77;;;3.90;1.00;;;;;;5055598;28;20413;-71
2022/11/17 04:18:09;;;;;;;13.40;8.67;;;4.00;1.00;;;;;;5056251;28;20955;-70
2022/11/17 04:20:35;;;;;;;10.97;9.70;;;4.10;1.00;;;;;;5055981;28;20401;-75
2022/11/17 04:23:10;;;;;;;9.83;8.37;;;4.00;1.00;;;;;;5055935;28;20182;-70
2022/11/17 04:28:38;;;;;;;13.33;8.70;;;4.10;1.00;;;;;;5055872;28;20408;-72
2022/11/17 04:31:14;;;;;;;13.63;9.03;;;4.10;1.00;;;;;;5055301;28;20405;-71
2022/11/17 04:33:53;;;;;;;17.40;9.27;;;4.10;1.00;;;;;;5055083;28;20397;-70
2022/11/17 04:36:22;;;;;;;12.23;8.50;;;4.10;1.00;;;;;;5055703;28;20432;-76
2022/11/17 04:38:50;;;;;;;11.83;8.97;;;4.00;1.00;;;;;;5055715;28;20397;-75
2022/11/17 04:44:03;;;;;;;11.10;8.23;;;4.10;1.00;;;;;;5054914;28;20448;-75
2022/11/17 04:46:31;;;;;;;12.47;7.70;;;4.10;1.00;;;;;;5054476;28;20444;-74
2022/11/17 04:48:57;;;;;;;14.47;8.53;;;4.10;1.00;;;;;;5055163;28;20923;-76
2022/11/17 04:51:24;;;;;;;15.33;8.33;;;4.10;1.00;;;;;;5055359;28;20452;-75
2022/11/17 04:53:50;;;;;;;11.67;8.43;;;4.20;1.00;;;;;;5054848;28;20937;-70
2022/11/17 04:56:17;;;;;;;11.47;8.50;;;4.10;1.00;;;;;;5055192;28;20440;-75
2022/11/17 04:58:43;;;;;;;9.80;7.00;;;4.10;1.00;;;;;;5055535;28;20463;-74
2022/11/17 05:01:12;;;;;;;9.80;6.90;;;4.00;1.00;;;;;;5055373;28;20804;-71
2022/11/17 05:03:43;;;;;;;13.30;8.30;;;4.00;1.00;;;;;;5054340;28;20724;-74
2022/11/17 05:06:11;;;;;;;10.67;8.33;;;4.00;1.00;;;;;;5054787;28;20434;-72
2022/11/17 05:08:38;;;;;;;12.33;8.67;;;4.00;1.00;;;;;;5054971;28;20942;-71
2022/11/17 05:13:51;;;;;;;10.40;9.07;;;4.00;1.00;;;;;;5054337;28;20412;-70
2022/11/17 05:19:04;;;;;;;14.03;8.30;;;3.90;1.00;;;;;;5055145;28;20393;-71
2022/11/17 05:21:30;;;;;;;10.33;7.07;;;3.90;1.00;;;;;;5055114;28;20488;-75
2022/11/17 05:23:56;;;;;;;11.40;7.77;;;3.80;1.00;;;;;;5053637;28;20869;-75
2022/11/17 05:26:31;;;;;;;12.57;8.57;;;3.80;1.00;;;;;;5054726;28;20450;-71
2022/11/17 05:28:58;;;;;;;14.40;9.20;;;3.90;1.00;;;;;;5054876;28;20910;-75
2022/11/17 05:31:25;;;;;;;15.43;10.20;;;3.80;1.00;;;;;;5054730;28;20405;-70
2022/11/17 05:33:52;;;;;;;16.13;10.40;;;3.80;1.00;;;;;;5052819;28;20408;-70
2022/11/17 05:36:18;;;;;;;23.07;9.53;;;3.80;1.00;;;;;;5053577;28;20441;-76
2022/11/17 05:38:46;;;;;;;15.33;9.50;;;3.80;1.00;;;;;;5054545;28;20413;-75
2022/11/17 05:41:12;;;;;;;14.07;9.40;;;3.80;1.00;;;;;;5054535;28;20826;-76
2022/11/17 05:43:38;;;;;;;9.57;7.97;;;3.80;1.00;;;;;;5053703;28;20861;-70
2022/11/17 05:46:04;;;;;;;14.10;8.80;;;3.80;1.00;;;;;;5054351;28;20422;-71
2022/11/17 05:48:30;;;;;;;10.57;8.47;;;3.80;1.00;;;;;;5054371;28;20167;-75
2022/11/17 05:50:56;;;;;;;14.73;8.97;;;3.70;1.00;;;;;;5054427;28;20246;-70
2022/11/17 05:53:23;;;;;;;10.00;7.70;;;3.80;1.00;;;;;;5054178;28;20885;-70
2022/11/17 05:55:49;;;;;;;9.07;6.70;;;3.80;1.00;;;;;;5052402;28;20490;-71
2022/11/17 05:58:23;;;;;;;8.93;7.90;;;3.70;1.00;;;;;;5054069;28;20889;-71
2022/11/17 06:00:51;;;;;;;11.03;7.70;;;3.80;1.00;;;;;;5053690;28;20417;-71
2022/11/17 06:03:28;;;;;;;6.23;5.60;;;3.70;1.00;;;;;;5054013;28;20453;-74
2022/11/17 06:05:54;;;;;;;8.70;7.13;;;3.70;1.00;;;;;;5053515;28;20451;-75
2022/11/17 06:08:20;;;;;;;10.60;6.23;;;3.70;1.00;;;;;;5053893;28;20405;-72
2022/11/17 06:10:46;;;;;;;10.60;6.10;;;3.70;1.00;;;;;;5053782;28;20902;-75
2022/11/17 06:13:12;;;;;;;9.13;7.20;;;3.70;1.00;;;;;;5053855;28;20171;-73
2022/11/17 06:15:38;;;;;;;6.07;5.47;;;3.80;1.00;;;;;;5053074;28;20397;-75
2022/11/17 06:18:15;;;;;;;7.57;6.77;;;3.80;1.00;;;;;;5052191;28;20531;-72
2022/11/17 06:20:44;;;;;;;6.77;6.07;;;3.80;1.00;;;;;;5053582;28;20408;-72
2022/11/17 06:23:11;;;;;;;7.87;6.33;;;3.80;1.00;;;;;;5053567;28;20410;-71
2022/11/17 06:25:38;;;;;;;7.93;6.27;;;3.80;1.00;;;;;;5053079;28;20408;-71
2022/11/17 06:28:10;;;;;;;10.57;6.57;;;3.90;1.00;;;;;;5053840;28;20397;-75
2022/11/17 06:30:37;;;;;;;7.40;6.30;;;3.80;1.00;;;;;;5053604;28;20402;-70
2022/11/17 06:33:04;;;;;;;10.53;7.70;;;3.80;1.00;;;;;;5053515;28;20421;-75
2022/11/17 06:35:33;;;;;;;9.00;7.10;;;3.80;1.00;;;;;;5052410;28;20500;-73
2022/11/17 06:38:00;;;;;;;10.00;8.40;;;3.80;1.00;;;;;;5053329;28;20401;-71
2022/11/17 06:40:26;;;;;;;11.45;8.05;;;3.80;1.00;;;;;;5053421;28;20461;-75
2022/11/17 06:43:11;;;;;;;13.60;9.10;;;3.80;1.00;;;;;;5053534;28;20175;-71
2022/11/17 06:45:42;;;;;;;14.00;9.13;;;3.80;1.00;;;;;;5052837;28;20401;-74
2022/11/17 06:48:09;;;;;;;15.23;8.60;;;3.80;1.00;;;;;;5053240;28;20405;-70
2022/11/17 06:50:35;;;;;;;14.17;9.17;;;3.80;1.00;;;;;;5053501;28;20429;-70
2022/11/17 06:53:04;;;;;;;14.67;9.70;;;3.80;1.00;;;;;;5053353;28;20425;-74
2022/11/17 06:55:30;;;;;;;13.33;9.33;;;3.80;1.00;;;;;;5052180;28;20163;-69
2022/11/17 06:58:02;;;;;;;17.57;10.03;;;3.80;1.00;;;;;;5053308;28;20402;-69
2022/11/17 07:00:29;;;;;;;9.50;7.77;;;3.80;1.00;;;;;;5053186;28;20405;-70
2022/11/17 07:02:59;;;;;;;15.53;7.83;;;3.80;1.00;;;;;;5053214;28;20402;-73
2022/11/17 07:05:26;;;;;;;10.57;8.30;;;3.80;1.00;;;;;;5052302;28;20516;-74
2022/11/17 07:07:51;;;;;;;17.57;8.40;;;3.70;1.00;;;;;;5053416;28;20409;-69
2022/11/17 07:10:17;;;;;;;11.10;8.43;;;3.70;1.00;;;;;;5053307;28;20393;-69
2022/11/17 07:12:45;;;;;;;9.80;7.10;;;3.70;1.00;;;;;;5052815;28;20594;-74
2022/11/17 07:15:10;;;;;;;9.23;7.53;;;3.70;1.00;;;;;;5052126;28;20167;-74
2022/11/17 07:17:36;;;;;;;7.17;6.47;;;3.70;1.00;;;;;;5053102;28;20512;-75
2022/11/17 07:20:02;;;;;;;10.17;7.00;;;3.70;1.00;;;;;;5053351;28;20174;-74
2022/11/17 07:22:28;;;;;;;12.50;8.30;;;3.80;1.00;;;;;;5053132;28;20182;-70
2022/11/17 07:24:54;;;;;;;11.17;7.77;;;3.80;1.00;;;;;;5052075;28;20460;-75
2022/11/17 07:27:20;;;;;;;7.53;6.93;;;3.70;1.00;;;;;;5052999;28;20456;-76
2022/11/17 07:29:45;;;;;;;12.03;8.30;;;3.80;1.00;;;;;;5051618;28;20171;-70
2022/11/17 07:32:13;;;;;;;8.27;7.50;;;3.80;1.00;;;;;;5052542;28;20245;-70
2022/11/17 07:34:39;;;;;;;11.90;8.30;;;3.80;1.00;;;;;;5052058;28;20171;-70
2022/11/17 07:37:06;;;;;;;9.63;8.40;;;3.80;1.00;;;;;;5051702;28;20603;-74
2022/11/17 07:39:32;;;;;;;7.47;6.60;;;3.80;1.00;;;;;;5052899;28;20495;-75
2022/11/17 07:41:58;;;;;;;11.53;7.07;;;3.80;1.00;;;;;;5052733;28;20406;-72
2022/11/17 07:44:23;;;;;;;9.30;7.00;;;3.90;1.00;;;;;;5051710;28;20932;-74
2022/11/17 07:46:49;;;;;;;7.57;6.30;;;3.90;1.00;;;;;;5052666;28;20183;-75
2022/11/17 07:49:15;;;;;;;7.10;6.30;;;3.90;1.00;;;;;;5052903;28;20171;-72
2022/11/17 07:51:40;;;;;;;6.33;5.60;;;3.90;1.00;;;;;;5052287;28;20509;-74
2022/11/17 07:54:06;;;;;;;6.73;6.07;;;3.90;1.00;;;;;;5051941;28;20623;-74
2022/11/17 07:56:33;;;;;;;11.03;6.37;;;3.90;1.00;;;;;;5052046;28;20256;-71
2022/11/17 07:58:59;;;;;;;7.97;6.20;;;3.90;1.00;;;;;;5051751;28;20171;-70
2022/11/17 08:01:26;;;;;;;9.30;6.27;;;3.90;1.00;;;;;;5055926;28;20427;-70
2022/11/17 08:03:52;;;;;;;12.37;6.63;;;3.90;1.00;;;;;;5055210;28;20202;-71
2022/11/17 08:06:19;;;;;;;7.97;6.33;;;3.90;1.00;;;;;;5056361;28;20832;-71
2022/11/17 08:08:47;;;;;;;8.67;7.40;;;4.00;1.00;;;;;;5056150;28;20401;-75
2022/11/17 08:11:13;;;;;;;7.23;6.07;;;3.90;1.00;;;;;;5055889;28;20407;-75
2022/11/17 08:13:40;;;;;;;7.57;6.00;;;4.00;1.00;;;;;;5055431;28;20414;-75
2022/11/17 08:16:07;;;;;;;11.70;7.77;;;4.00;1.00;;;;;;5055962;28;20191;-74
2022/11/17 08:18:33;;;;;;;8.03;6.53;;;4.00;1.00;;;;;;5056095;28;20398;-74
2022/11/17 08:21:09;;;;;;;7.47;5.10;;;3.90;1.00;;;;;;5056081;28;20410;-75
2022/11/17 08:23:35;;;;;;;7.20;6.20;;;4.00;1.00;;;;;;5055469;28;20986;-76
2022/11/17 08:26:02;;;;;;;8.10;7.13;;;4.00;1.00;;;;;;5055442;28;20432;-71
2022/11/17 08:28:28;;;;;;;12.87;6.03;;;4.00;1.00;;;;;;5055421;28;20410;-71
2022/11/17 08:30:54;;;;;;;6.13;5.53;;;4.00;1.00;;;;;;5056033;28;20746;-70
2022/11/17 08:33:20;;;;;;;6.20;5.43;;;4.00;1.00;;;;;;5055802;28;20452;-75
2022/11/17 08:35:46;;;;;;;6.47;5.47;;;4.10;1.00;;;;;;5055175;28;20425;-75
2022/11/17 08:38:14;;;;;;;8.77;6.50;;;4.00;1.00;;;;;;5055760;28;20209;-76
2022/11/17 08:40:40;;;;;;;9.00;6.83;;;4.00;1.00;;;;;;5056113;28;20171;-70
2022/11/17 08:43:06;;;;;;;9.70;6.13;;;4.10;1.00;;;;;;5055656;28;20937;-74
2022/11/17 08:45:32;;;;;;;10.50;7.00;;;4.10;1.00;;;;;;5054937;28;20402;-75
2022/11/17 08:47:58;;;;;;;12.00;6.70;;;4.20;1.00;;;;;;5054927;28;20401;-72
2022/11/17 08:50:24;;;;;;;8.60;6.17;;;4.20;1.00;;;;;;5055517;28;20171;-70
2022/11/17 08:52:51;;;;;;;8.17;6.83;;;4.20;1.00;;;;;;5054184;28;20415;-70
2022/11/17 08:55:17;;;;;;;8.30;7.43;;;4.20;1.00;;;;;;5054738;28;20417;-71
2022/11/17 08:57:43;;;;;;;9.37;6.47;;;4.20;1.00;;;;;;5055201;28;20799;-73
2022/11/17 09:00:10;;;;;;;7.70;6.43;;;4.20;1.00;;;;;;5055218;28;20513;-76
2022/11/17 09:02:38;;;;;;;7.70;6.60;;;4.20;1.00;;;;;;5054084;28;20406;-71
2022/11/17 09:05:05;;;;;;;8.30;6.80;;;4.30;1.00;;;;;;5054023;28;20546;-73
2022/11/17 09:07:34;;;;;;;8.97;6.13;;;4.40;1.00;;;;;;5053949;28;20436;-75
2022/11/17 09:10:01;;;;;;;13.13;6.80;;;4.40;1.00;;;;;;5055170;28;20739;-71
2022/11/17 09:12:26;;;;;;;6.93;6.23;;;4.40;1.00;;;;;;5053707;28;20405;-75
2022/11/17 09:14:52;;;;;;;11.23;5.60;;;4.40;1.00;;;;;;5054715;28;20413;-75
2022/11/17 09:17:18;;;;;;;12.00;7.27;;;4.50;1.00;;;;;;5054968;28;20237;-75
2022/11/17 09:19:43;;;;;;;9.50;6.60;;;4.50;1.00;;;;;;5053448;28;20636;-74
2022/11/17 09:22:09;;;;;;;8.90;6.47;;;4.40;1.00;;;;;;5053245;28;20183;-71
2022/11/17 09:24:35;;;;;;;6.10;5.10;;;4.40;1.00;;;;;;5054029;28;20194;-75
2022/11/17 09:27:03;;;;;;;9.63;6.90;;;4.50;1.00;;;;;;5054670;28;20191;-75
2022/11/17 09:29:29;;;;;;;8.53;7.40;;;4.50;1.00;;;;;;5053405;28;20171;-75
2022/11/17 09:31:56;;;;;;;6.53;5.90;;;4.50;1.00;;;;;;5054481;28;20401;-71
2022/11/17 09:34:22;;;;;;;6.93;6.20;;;4.50;1.00;;;;;;5053941;28;20407;-74
2022/11/17 09:36:48;;;;;;;9.13;6.20;;;4.50;1.00;;;;;;5054424;28;20426;-71
2022/11/17 09:39:15;;;;;;;6.80;6.03;;;4.50;1.00;;;;;;5054326;28;20811;-74
2022/11/17 09:41:54;;;;;;;6.70;5.20;;;4.60;1.00;;;;;;5054526;28;20398;-75
2022/11/17 09:44:40;;;;;;;7.50;5.40;;;4.60;1.00;;;;;;5053681;28;20485;-74
2022/11/17 09:47:16;;;;;;;10.83;5.70;;;4.60;1.00;;;;;;5054279;28;20428;-71
2022/11/17 09:49:55;;;;;;;6.37;5.53;;;4.60;1.00;;;;;;5053142;28;20459;-70
2022/11/17 09:52:47;;;;;;;5.53;5.13;;;4.60;1.00;;;;;;5054364;28;20420;-72
2022/11/17 09:55:24;;;;;;;8.13;7.03;;;4.60;1.00;;;;;;5053174;28;20488;-71
2022/11/17 09:58:05;;;;;;;8.17;6.37;;;4.50;1.00;;;;;;5054389;28;20811;-70
2022/11/17 10:00:32;;;;;;;10.63;6.57;;;4.60;1.00;;;;;;5054060;28;20441;-75
2022/11/17 10:02:59;;;;;;;7.53;6.60;;;4.50;1.00;;;;;;5052731;28;20415;-75
2022/11/17 10:05:33;;;;;;;6.90;6.20;;;4.60;1.00;;;;;;5053183;28;20482;-72
2022/11/17 10:08:09;;;;;;;9.67;7.43;;;4.60;1.00;;;;;;5054011;28;20424;-72
2022/11/17 10:10:44;;;;;;;8.97;6.70;;;4.60;1.00;;;;;;5053819;28;20456;-69
2022/11/17 10:13:29;;;;;;;9.60;6.70;;;4.70;1.00;;;;;;5053815;28;20404;-72
2022/11/17 10:16:06;;;;;;;8.13;5.93;;;4.70;1.00;;;;;;5053362;28;20433;-70
2022/11/17 10:18:35;;;;;;;7.40;6.50;;;4.70;1.00;;;;;;5053761;28;20409;-73
2022/11/17 10:21:01;;;;;;;9.03;6.67;;;4.70;1.00;;;;;;5052633;28;20517;-70
2022/11/17 10:23:36;;;;;;;6.37;5.73;;;4.70;1.00;;;;;;5052030;28;20445;-74
2022/11/17 10:26:07;;;;;;;10.27;6.63;;;4.60;1.00;;;;;;5053608;28;20428;-69
2022/11/17 10:28:33;;;;;;;7.23;6.00;;;4.70;1.00;;;;;;5053629;28;20732;-70
2022/11/17 10:31:09;;;;;;;6.60;6.00;;;4.70;1.00;;;;;;5053450;28;20407;-73
2022/11/17 10:33:45;;;;;;;6.47;5.80;;;4.60;1.00;;;;;;5053002;28;20653;-73
2022/11/17 10:36:29;;;;;;;7.93;6.50;;;4.70;1.00;;;;;;5052316;28;20437;-74
2022/11/17 10:38:58;;;;;;;7.17;5.67;;;4.70;1.00;;;;;;5053472;28;20413;-70
2022/11/17 10:41:39;;;;;;;6.07;5.57;;;4.70;1.00;;;;;;5052323;28;20833;-74
2022/11/17 10:44:24;;;;;;;8.23;6.70;;;4.60;1.00;;;;;;5052649;28;20461;-73
2022/11/17 10:47:02;;;;;;;5.73;5.33;;;4.70;1.00;;;;;;5053427;28;20433;-73
2022/11/17 10:49:39;;;;;;;12.63;6.43;;;4.60;1.00;;;;;;5053422;28;20895;-74
2022/11/17 10:52:14;;;;;;;7.00;6.30;;;4.70;1.00;;;;;;5052960;28;20397;-73
2022/11/17 10:54:41;;;;;;;7.93;6.53;;;4.60;1.00;;;;;;5052698;28;20750;-73
2022/11/17 10:57:13;;;;;;;7.37;6.60;;;4.60;1.00;;;;;;5053034;28;20425;-71
2022/11/17 10:59:56;;;;;;;9.03;5.90;;;4.60;1.00;;;;;;5052323;28;20421;-74
2022/11/17 11:02:47;;;;;;;8.57;6.17;;;4.70;1.00;;;;;;5053167;28;20377;-69
2022/11/17 11:05:16;;;;;;;7.00;6.30;;;4.70;1.00;;;;;;5050217;28;20473;-69
2022/11/17 11:07:42;;;;;;;7.27;5.37;;;4.70;1.00;;;;;;5053092;28;20426;-75
2022/11/17 11:10:26;;;;;;;6.93;5.43;;;4.70;1.00;;;;;;5052805;28;20404;-75
2022/11/17 11:13:08;;;;;;;7.40;5.30;;;4.70;1.00;;;;;;5051800;28;20744;-72
2022/11/17 11:15:35;;;;;;;7.67;6.97;;;4.80;1.00;;;;;;5052375;28;20435;-70
2022/11/17 11:18:04;;;;;;;7.03;6.27;;;4.70;1.00;;;;;;5053121;28;20445;-75
2022/11/17 11:20:58;;;;;;;7.37;6.10;;;4.70;1.00;;;;;;5053132;28;20416;-74
2022/11/17 11:23:55;;;;;;;11.80;5.47;;;4.70;1.00;;;;;;5052748;28;20440;-73
2022/11/17 11:26:43;;;;;;;7.37;6.00;;;4.70;1.00;;;;;;5051481;28;20465;-71
2022/11/17 11:29:21;;;;;;;8.07;7.30;;;4.70;1.00;;;;;;5052760;28;20808;-75
2022/11/17 11:31:59;;;;;;;10.30;6.10;;;4.60;1.00;;;;;;5052988;28;20406;-75
2022/11/17 11:35:03;;;;;;;6.80;6.17;;;4.60;1.00;;;;;;5052610;28;20409;-75
2022/11/17 11:37:36;;;;;;;7.97;7.20;;;4.60;1.00;;;;;;5055259;28;20767;-70
2022/11/17 11:40:30;;;;;;;7.00;6.03;;;4.60;1.00;;;;;;5055523;28;20481;-75
2022/11/17 11:42:59;;;;;;;8.20;6.73;;;4.60;1.00;;;;;;5056549;28;20436;-68
2022/11/17 11:45:40;;;;;;;11.17;6.57;;;4.70;1.00;;;;;;5055345;28;20458;-71
2022/11/17 11:48:16;;;;;;;8.47;6.13;;;4.70;1.00;;;;;;5057073;28;20882;-70
2022/11/17 11:50:50;;;;;;;6.93;6.27;;;4.70;1.00;;;;;;5056856;28;20742;-68
2022/11/17 11:53:38;;;;;;;7.70;6.23;;;4.80;1.00;;;;;;5056652;28;20425;-73
2022/11/17 11:56:32;;;;;;;10.33;5.47;;;4.80;1.00;;;;;;5056665;28;20430;-74
2022/11/17 11:59:32;;;;;;;8.10;6.60;;;4.90;1.00;;;;;;5056460;28;20953;-76
2022/11/17 12:02:10;;;;;;;6.00;5.47;;;4.90;1.00;;;;;;5056044;28;20402;-72
2022/11/17 12:05:00;;;;;;;7.70;6.13;;;4.80;1.00;;;;;;5055520;28;20937;-75
2022/11/17 12:07:39;;;;;;;6.73;6.10;;;4.80;1.00;;;;;;5056149;28;20445;-71
2022/11/17 12:10:20;;;;;;;8.50;6.17;;;4.80;1.00;;;;;;5056219;28;20409;-76
2022/11/17 12:12:46;;;;;;;21.93;8.53;;;4.80;1.00;;;;;;5056195;28;20405;-71
2022/11/17 12:15:15;;;;;;;12.23;6.23;;;4.80;1.00;;;;;;5055547;28;20417;-70
2022/11/17 12:17:53;;;;;;;6.80;6.10;;;4.90;1.00;;;;;;5054508;28;20437;-71
2022/11/17 12:20:37;;;;;;;10.90;6.27;;;4.90;1.00;;;;;;5054315;28;20471;-72
2022/11/17 12:23:44;;;;;;;8.40;6.80;;;4.90;1.00;;;;;;5055179;28;20414;-73
2022/11/17 12:26:28;;;;;;;7.17;5.60;;;4.90;1.00;;;;;;5056161;28;20429;-74
2022/11/17 12:29:18;;;;;;;7.57;5.83;;;4.90;1.00;;;;;;5054544;28;20985;-74
2022/11/17 12:31:46;;;;;;;8.50;6.27;;;5.00;1.00;;;;;;5055617;28;20409;-72
2022/11/17 12:34:35;;;;;;;7.83;5.70;;;4.90;1.00;;;;;;5054908;28;20476;-68
2022/11/17 12:37:20;;;;;;;12.00;6.63;;;4.90;1.00;;;;;;5055303;28;20429;-67
2022/11/17 12:40:07;;;;;;;9.33;6.27;;;4.90;1.00;;;;;;5055815;28;20793;-71
2022/11/17 12:42:35;;;;;;;5.40;4.90;;;4.90;1.00;;;;;;5054356;28;20865;-73
2022/11/17 12:45:01;;;;;;;6.60;5.53;;;4.90;1.00;;;;;;5054800;28;20442;-75
2022/11/17 12:47:36;;;;;;;9.50;5.93;;;4.90;1.00;;;;;;5055470;28;20840;-75
2022/11/17 12:50:05;;;;;;;8.70;6.27;;;4.90;1.00;;;;;;5055405;28;20758;-74
2022/11/17 12:52:49;;;;;;;8.17;6.20;;;4.90;1.00;;;;;;5055555;28;20751;-70
2022/11/17 12:56:02;;;;;;;7.83;5.53;;;4.90;1.00;;;;;;5054219;28;20464;-69
2022/11/17 12:58:31;;;;;;;12.80;5.97;;;4.80;1.00;;;;;;5013833;28;20416;-72
2022/11/17 13:01:08;;;;;;;8.27;6.47;;;4.80;1.00;;;;;;5048187;28;20421;-72
2022/11/17 13:04:02;;;;;;;7.80;7.00;;;4.80;1.00;;;;;;5055063;28;21011;-70
2022/11/17 13:06:27;;;;;;;11.13;6.60;;;4.90;1.00;;;;;;5055247;28;20417;-70
2022/11/17 13:09:02;;;;;;;7.33;5.70;;;4.90;1.00;;;;;;5055063;28;20471;-75
2022/11/17 13:11:28;;;;;;;6.67;6.00;;;4.80;1.00;;;;;;5054762;28;20147;-76
2022/11/17 13:14:14;;;;;;;7.33;6.63;;;4.90;1.00;;;;;;5054152;28;20731;-75
2022/11/17 13:16:45;;;;;;;7.13;6.17;;;4.80;1.00;;;;;;5055062;28;20198;-69
2022/11/17 13:19:33;;;;;;;8.83;7.10;;;4.90;1.00;;;;;;5054968;28;20915;-75
2022/11/17 13:22:00;;;;;;;7.27;6.50;;;4.80;1.00;;;;;;5054952;28;20404;-75
2022/11/17 13:24:35;;;;;;;6.80;5.97;;;4.80;1.00;;;;;;5053744;28;20544;-73
2022/11/17 13:27:06;;;;;;;6.80;6.03;;;4.90;1.00;;;;;;5054598;28;20425;-69
2022/11/17 13:29:32;;;;;;;8.97;7.20;;;4.90;1.00;;;;;;5054419;28;20389;-73
2022/11/17 13:32:12;;;;;;;7.57;6.20;;;4.90;1.00;;;;;;5054569;28;20446;-74
2022/11/17 13:34:48;;;;;;;11.03;6.43;;;4.80;1.00;;;;;;5053703;28;20493;-69
2022/11/17 13:37:20;;;;;;;8.20;6.27;;;4.80;1.00;;;;;;5054541;28;20422;-72
2022/11/17 13:40:00;;;;;;;7.10;6.40;;;4.80;1.00;;;;;;5050313;28;20510;-68
2022/11/17 13:42:31;;;;;;;7.77;7.03;;;4.80;1.00;;;;;;5054365;28;20413;-75
2022/11/17 13:45:00;;;;;;;12.37;6.50;;;4.80;1.00;;;;;;5053666;28;21013;-72
2022/11/17 13:47:47;;;;;;;8.13;7.33;;;4.80;1.00;;;;;;5052884;28;20447;-67
2022/11/17 13:50:25;;;;;;;8.83;6.67;;;4.80;1.00;;;;;;5053918;28;20409;-68
2022/11/17 13:52:59;;;;;;;9.87;6.80;;;4.90;1.00;;;;;;5053422;28;20426;-71
2022/11/17 13:55:26;;;;;;;8.77;6.83;;;4.80;1.00;;;;;;5053262;28;20411;-68